sensor_id;sensor_type;location;lat;lon;timestamp;temperature;humidity
27633;DHT22;15046;50.930;13.334;2023-06-19T00:08:54;19.00;72.60
27633;DHT22;15046;50.930;13.334;2023-06-19T00:11:43;19.00;72.50
27633;DHT22;15046;50.930;13.334;2023-06-19T00:18:02;19.00;72.40
27633;DHT22;15046;50.930;13.334;2023-06-19T00:20:44;19.00;72.40
27633;DHT22;15046;50.930;13.334;2023-06-19T00:33:50;18.90;72.80
27633;DHT22;15046;50.930;13.334;2023-06-19T00:39:45;18.90;72.80
27633;DHT22;15046;50.930;13.334;2023-06-19T00:42:15;18.90;73.10
27633;DHT22;15046;50.930;13.334;2023-06-19T00:52:49;18.70;73.90
27633;DHT22;15046;50.930;13.334;2023-06-19T00:59:08;18.80;73.90
27633;DHT22;15046;50.930;13.334;2023-06-19T01:02:19;18.80;74.00
27633;DHT22;15046;50.930;13.334;2023-06-19T01:05:25;18.80;74.20
27633;DHT22;15046;50.930;13.334;2023-06-19T01:21:23;18.80;74.60
27633;DHT22;15046;50.930;13.334;2023-06-19T01:40:36;18.90;74.50
27633;DHT22;15046;50.930;13.334;2023-06-19T01:46:54;18.90;74.50
27633;DHT22;15046;50.930;13.334;2023-06-19T01:56:47;18.90;74.60
27633;DHT22;15046;50.930;13.334;2023-06-19T02:17:06;18.70;75.40
27633;DHT22;15046;50.930;13.334;2023-06-19T02:33:49;18.60;75.90
27633;DHT22;15046;50.930;13.334;2023-06-19T02:41:06;18.60;76.20
27633;DHT22;15046;50.930;13.334;2023-06-19T03:26:19;18.50;77.10
27633;DHT22;15046;50.930;13.334;2023-06-19T04:16:48;19.50;74.20
27633;DHT22;15046;50.930;13.334;2023-06-19T04:23:41;19.70;73.70
27633;DHT22;15046;50.930;13.334;2023-06-19T04:37:02;20.10;72.30
27633;DHT22;15046;50.930;13.334;2023-06-19T04:47:27;20.20;71.90
27633;DHT22;15046;50.930;13.334;2023-06-19T04:50:35;20.20;71.90
27633;DHT22;15046;50.930;13.334;2023-06-19T04:54:12;20.20;71.80
27633;DHT22;15046;50.930;13.334;2023-06-19T04:57:17;20.20;71.90
27633;DHT22;15046;50.930;13.334;2023-06-19T05:10:29;20.20;71.80
27633;DHT22;15046;50.930;13.334;2023-06-19T05:13:26;20.20;71.70
27633;DHT22;15046;50.930;13.334;2023-06-19T05:16:47;20.20;71.60
27633;DHT22;15046;50.930;13.334;2023-06-19T05:23:13;20.20;71.10
27633;DHT22;15046;50.930;13.334;2023-06-19T05:35:20;20.40;70.70
27633;DHT22;15046;50.930;13.334;2023-06-19T05:41:34;20.40;70.70
27633;DHT22;15046;50.930;13.334;2023-06-19T05:48:30;20.50;70.90
27633;DHT22;15046;50.930;13.334;2023-06-19T06:05:29;21.00;70.20
27633;DHT22;15046;50.930;13.334;2023-06-19T06:32:13;21.50;70.10
27633;DHT22;15046;50.930;13.334;2023-06-19T06:56:10;22.70;66.70
27633;DHT22;15046;50.930;13.334;2023-06-19T07:02:41;23.00;66.10
27633;DHT22;15046;50.930;13.334;2023-06-19T07:15:15;23.50;65.60
27633;DHT22;15046;50.930;13.334;2023-06-19T07:18:12;23.60;65.30
27633;DHT22;15046;50.930;13.334;2023-06-19T07:20:38;23.70;64.80
27633;DHT22;15046;50.930;13.334;2023-06-19T07:23:11;23.90;65.10
27633;DHT22;15046;50.930;13.334;2023-06-19T07:25:40;24.00;65.10
27633;DHT22;15046;50.930;13.334;2023-06-19T07:28:07;24.10;65.50
27633;DHT22;15046;50.930;13.334;2023-06-19T07:34:21;24.00;65.00
27633;DHT22;15046;50.930;13.334;2023-06-19T07:36:48;23.80;65.30
27633;DHT22;15046;50.930;13.334;2023-06-19T07:39:36;23.60;65.20
27633;DHT22;15046;50.930;13.334;2023-06-19T07:42:03;23.40;65.40
27633;DHT22;15046;50.930;13.334;2023-06-19T07:48:11;23.00;66.40
27633;DHT22;15046;50.930;13.334;2023-06-19T07:58:02;22.60;67.40
27633;DHT22;15046;50.930;13.334;2023-06-19T08:00:31;22.60;67.40
27633;DHT22;15046;50.930;13.334;2023-06-19T08:06:44;22.60;67.80
27633;DHT22;15046;50.930;13.334;2023-06-19T08:15:38;22.60;68.00
27633;DHT22;15046;50.930;13.334;2023-06-19T08:18:43;22.70;67.90
27633;DHT22;15046;50.930;13.334;2023-06-19T08:21:18;22.90;68.40
27633;DHT22;15046;50.930;13.334;2023-06-19T08:24:17;23.00;69.30
27633;DHT22;15046;50.930;13.334;2023-06-19T08:26:46;23.20;68.60
27633;DHT22;15046;50.930;13.334;2023-06-19T08:29:19;23.40;67.40
27633;DHT22;15046;50.930;13.334;2023-06-19T08:31:52;23.70;67.40
27633;DHT22;15046;50.930;13.334;2023-06-19T08:34:22;23.90;68.20
27633;DHT22;15046;50.930;13.334;2023-06-19T08:37:12;24.20;67.30
27633;DHT22;15046;50.930;13.334;2023-06-19T08:39:58;24.40;66.40
27633;DHT22;15046;50.930;13.334;2023-06-19T08:46:30;24.70;65.20
27633;DHT22;15046;50.930;13.334;2023-06-19T08:49:01;24.60;65.30
27633;DHT22;15046;50.930;13.334;2023-06-19T08:52:11;24.60;65.50
27633;DHT22;15046;50.930;13.334;2023-06-19T08:54:54;24.50;65.30
27633;DHT22;15046;50.930;13.334;2023-06-19T08:57:34;24.40;66.50
27633;DHT22;15046;50.930;13.334;2023-06-19T09:00:05;24.30;67.10
27633;DHT22;15046;50.930;13.334;2023-06-19T09:02:45;24.30;67.20
27633;DHT22;15046;50.930;13.334;2023-06-19T09:05:18;24.30;66.20
27633;DHT22;15046;50.930;13.334;2023-06-19T09:15:15;24.50;73.40
27633;DHT22;15046;50.930;13.334;2023-06-19T09:17:41;24.60;71.60
27633;DHT22;15046;50.930;13.334;2023-06-19T09:20:12;24.80;71.00
27633;DHT22;15046;50.930;13.334;2023-06-19T09:23:08;24.90;70.60
27633;DHT22;15046;50.930;13.334;2023-06-19T09:43:42;27.10;68.30
27633;DHT22;15046;50.930;13.334;2023-06-19T10:10:27;29.40;57.00
27633;DHT22;15046;50.930;13.334;2023-06-19T10:13:30;30.20;56.70
27633;DHT22;15046;50.930;13.334;2023-06-19T10:16:31;31.30;55.70
27633;DHT22;15046;50.930;13.334;2023-06-19T10:29:19;34.20;51.50
27633;DHT22;15046;50.930;13.334;2023-06-19T10:32:08;34.90;50.00
27633;DHT22;15046;50.930;13.334;2023-06-19T10:38:13;35.50;47.80
27633;DHT22;15046;50.930;13.334;2023-06-19T10:40:44;35.70;46.50
27633;DHT22;15046;50.930;13.334;2023-06-19T10:43:33;35.90;45.30
27633;DHT22;15046;50.930;13.334;2023-06-19T10:46:04;36.10;43.70
27633;DHT22;15046;50.930;13.334;2023-06-19T10:48:33;36.30;42.90
27633;DHT22;15046;50.930;13.334;2023-06-19T10:50:59;36.40;43.90
27633;DHT22;15046;50.930;13.334;2023-06-19T10:53:31;36.40;44.90
27633;DHT22;15046;50.930;13.334;2023-06-19T10:56:10;36.40;45.80
27633;DHT22;15046;50.930;13.334;2023-06-19T10:58:35;37.00;45.90
27633;DHT22;15046;50.930;13.334;2023-06-19T11:01:01;37.20;45.00
27633;DHT22;15046;50.930;13.334;2023-06-19T11:03:28;37.30;44.20
27633;DHT22;15046;50.930;13.334;2023-06-19T11:05:54;37.20;43.00
27633;DHT22;15046;50.930;13.334;2023-06-19T11:08:22;37.10;42.70
27633;DHT22;15046;50.930;13.334;2023-06-19T11:10:49;37.20;44.10
27633;DHT22;15046;50.930;13.334;2023-06-19T11:13:22;37.50;44.80
27633;DHT22;15046;50.930;13.334;2023-06-19T11:15:53;37.70;43.70
27633;DHT22;15046;50.930;13.334;2023-06-19T11:21:54;38.40;45.00
27633;DHT22;15046;50.930;13.334;2023-06-19T11:24:47;38.90;43.80
27633;DHT22;15046;50.930;13.334;2023-06-19T11:27:19;38.30;43.20
27633;DHT22;15046;50.930;13.334;2023-06-19T11:29:55;37.30;42.50
27633;DHT22;15046;50.930;13.334;2023-06-19T11:32:22;36.40;44.80
27633;DHT22;15046;50.930;13.334;2023-06-19T11:34:53;36.00;45.00
27633;DHT22;15046;50.930;13.334;2023-06-19T11:37:19;35.70;44.20
27633;DHT22;15046;50.930;13.334;2023-06-19T11:39:48;36.00;45.50
27633;DHT22;15046;50.930;13.334;2023-06-19T11:48:27;38.50;45.00
27633;DHT22;15046;50.930;13.334;2023-06-19T11:50:53;39.00;46.30
27633;DHT22;15046;50.930;13.334;2023-06-19T11:53:23;39.50;45.20
27633;DHT22;15046;50.930;13.334;2023-06-19T11:55:51;39.80;43.80
27633;DHT22;15046;50.930;13.334;2023-06-19T11:58:17;39.80;42.60
27633;DHT22;15046;50.930;13.334;2023-06-19T12:00:45;39.70;42.60
27633;DHT22;15046;50.930;13.334;2023-06-19T12:03:10;39.80;41.90
27633;DHT22;15046;50.930;13.334;2023-06-19T12:05:37;39.40;41.50
27633;DHT22;15046;50.930;13.334;2023-06-19T12:08:03;38.80;41.20
27633;DHT22;15046;50.930;13.334;2023-06-19T12:10:30;37.90;41.30
27633;DHT22;15046;50.930;13.334;2023-06-19T12:12:56;37.10;42.70
27633;DHT22;15046;50.930;13.334;2023-06-19T12:15:22;36.40;43.10
27633;DHT22;15046;50.930;13.334;2023-06-19T12:17:48;35.80;43.90
27633;DHT22;15046;50.930;13.334;2023-06-19T12:20:14;35.30;44.70
27633;DHT22;15046;50.930;13.334;2023-06-19T12:22:40;35.00;44.50
27633;DHT22;15046;50.930;13.334;2023-06-19T12:25:07;34.80;44.30
27633;DHT22;15046;50.930;13.334;2023-06-19T12:27:33;34.50;44.80
27633;DHT22;15046;50.930;13.334;2023-06-19T12:29:58;34.30;45.20
27633;DHT22;15046;50.930;13.334;2023-06-19T12:32:24;34.20;45.60
27633;DHT22;15046;50.930;13.334;2023-06-19T12:34:50;34.00;46.90
27633;DHT22;15046;50.930;13.334;2023-06-19T12:37:22;34.00;47.00
27633;DHT22;15046;50.930;13.334;2023-06-19T12:39:50;34.40;47.30
27633;DHT22;15046;50.930;13.334;2023-06-19T12:42:19;35.00;46.20
27633;DHT22;15046;50.930;13.334;2023-06-19T12:44:45;35.10;45.50
27633;DHT22;15046;50.930;13.334;2023-06-19T12:47:10;34.90;45.80
27633;DHT22;15046;50.930;13.334;2023-06-19T12:49:36;35.00;46.20
27633;DHT22;15046;50.930;13.334;2023-06-19T12:52:02;35.10;45.30
27633;DHT22;15046;50.930;13.334;2023-06-19T12:54:28;35.30;44.90
27633;DHT22;15046;50.930;13.334;2023-06-19T13:03:06;37.20;43.60
27633;DHT22;15046;50.930;13.334;2023-06-19T13:05:33;37.90;44.60
27633;DHT22;15046;50.930;13.334;2023-06-19T13:07:59;38.40;44.60
27633;DHT22;15046;50.930;13.334;2023-06-19T13:10:25;38.40;43.40
27633;DHT22;15046;50.930;13.334;2023-06-19T13:12:50;38.00;44.20
27633;DHT22;15046;50.930;13.334;2023-06-19T13:15:17;38.20;43.50
27633;DHT22;15046;50.930;13.334;2023-06-19T13:17:43;38.60;42.80
27633;DHT22;15046;50.930;13.334;2023-06-19T13:20:09;38.90;42.90
27633;DHT22;15046;50.930;13.334;2023-06-19T13:22:34;39.40;42.30
27633;DHT22;15046;50.930;13.334;2023-06-19T13:25:01;39.60;41.90
27633;DHT22;15046;50.930;13.334;2023-06-19T13:27:27;40.00;42.10
27633;DHT22;15046;50.930;13.334;2023-06-19T13:29:54;39.80;43.50
27633;DHT22;15046;50.930;13.334;2023-06-19T13:32:20;39.20;43.30
27633;DHT22;15046;50.930;13.334;2023-06-19T13:34:46;38.70;43.80
27633;DHT22;15046;50.930;13.334;2023-06-19T13:37:12;38.10;43.70
27633;DHT22;15046;50.930;13.334;2023-06-19T13:39:37;37.90;45.30
27633;DHT22;15046;50.930;13.334;2023-06-19T13:42:06;38.40;45.00
27633;DHT22;15046;50.930;13.334;2023-06-19T13:44:31;39.00;44.80
27633;DHT22;15046;50.930;13.334;2023-06-19T13:46:57;39.50;45.70
27633;DHT22;15046;50.930;13.334;2023-06-19T13:49:23;39.80;44.20
27633;DHT22;15046;50.930;13.334;2023-06-19T13:51:49;39.90;44.10
27633;DHT22;15046;50.930;13.334;2023-06-19T13:54:14;39.90;44.30
27633;DHT22;15046;50.930;13.334;2023-06-19T13:56:40;39.60;44.30
27633;DHT22;15046;50.930;13.334;2023-06-19T13:59:06;39.40;43.00
27633;DHT22;15046;50.930;13.334;2023-06-19T14:01:32;39.10;42.90
27633;DHT22;15046;50.930;13.334;2023-06-19T14:03:58;38.70;43.60
27633;DHT22;15046;50.930;13.334;2023-06-19T14:06:24;38.70;43.20
27633;DHT22;15046;50.930;13.334;2023-06-19T14:08:51;38.70;43.60
27633;DHT22;15046;50.930;13.334;2023-06-19T14:11:18;38.20;42.80
27633;DHT22;15046;50.930;13.334;2023-06-19T14:13:44;37.50;42.90
27633;DHT22;15046;50.930;13.334;2023-06-19T14:16:09;37.20;44.10
27633;DHT22;15046;50.930;13.334;2023-06-19T14:18:35;36.90;43.80
27633;DHT22;15046;50.930;13.334;2023-06-19T14:21:04;37.00;44.70
27633;DHT22;15046;50.930;13.334;2023-06-19T14:23:31;37.60;43.40
27633;DHT22;15046;50.930;13.334;2023-06-19T14:25:57;37.90;42.90
27633;DHT22;15046;50.930;13.334;2023-06-19T14:28:24;37.70;43.00
27633;DHT22;15046;50.930;13.334;2023-06-19T14:30:50;37.40;43.60
27633;DHT22;15046;50.930;13.334;2023-06-19T14:33:15;37.60;44.00
27633;DHT22;15046;50.930;13.334;2023-06-19T14:35:44;37.60;43.70
27633;DHT22;15046;50.930;13.334;2023-06-19T14:38:15;37.50;42.90
27633;DHT22;15046;50.930;13.334;2023-06-19T14:40:44;37.50;42.50
27633;DHT22;15046;50.930;13.334;2023-06-19T14:43:10;37.40;42.20
27633;DHT22;15046;50.930;13.334;2023-06-19T14:45:35;36.90;42.90
27633;DHT22;15046;50.930;13.334;2023-06-19T14:48:02;36.30;43.20
27633;DHT22;15046;50.930;13.334;2023-06-19T14:50:28;35.70;43.50
27633;DHT22;15046;50.930;13.334;2023-06-19T14:52:53;35.00;44.10
27633;DHT22;15046;50.930;13.334;2023-06-19T14:55:19;34.50;44.70
27633;DHT22;15046;50.930;13.334;2023-06-19T14:57:45;34.10;45.50
27633;DHT22;15046;50.930;13.334;2023-06-19T15:00:11;33.80;45.70
27633;DHT22;15046;50.930;13.334;2023-06-19T15:02:37;33.50;46.70
27633;DHT22;15046;50.930;13.334;2023-06-19T15:05:03;33.30;47.50
27633;DHT22;15046;50.930;13.334;2023-06-19T15:07:29;33.30;48.00
27633;DHT22;15046;50.930;13.334;2023-06-19T15:09:55;33.20;48.50
27633;DHT22;15046;50.930;13.334;2023-06-19T15:12:21;33.30;49.20
27633;DHT22;15046;50.930;13.334;2023-06-19T15:14:46;33.40;48.60
27633;DHT22;15046;50.930;13.334;2023-06-19T15:17:12;33.60;48.30
27633;DHT22;15046;50.930;13.334;2023-06-19T15:19:38;33.60;48.00
27633;DHT22;15046;50.930;13.334;2023-06-19T15:22:04;33.80;48.20
27633;DHT22;15046;50.930;13.334;2023-06-19T15:24:30;34.30;48.20
27633;DHT22;15046;50.930;13.334;2023-06-19T15:26:57;35.10;48.20
27633;DHT22;15046;50.930;13.334;2023-06-19T15:29:24;35.80;48.20
27633;DHT22;15046;50.930;13.334;2023-06-19T15:31:51;36.50;46.80
27633;DHT22;15046;50.930;13.334;2023-06-19T15:34:17;37.00;46.40
27633;DHT22;15046;50.930;13.334;2023-06-19T15:36:43;37.50;45.90
27633;DHT22;15046;50.930;13.334;2023-06-19T15:39:08;37.90;44.50
27633;DHT22;15046;50.930;13.334;2023-06-19T15:41:34;38.20;43.80
27633;DHT22;15046;50.930;13.334;2023-06-19T15:44:00;38.40;43.50
27633;DHT22;15046;50.930;13.334;2023-06-19T15:46:26;38.30;43.20
27633;DHT22;15046;50.930;13.334;2023-06-19T15:48:52;38.00;42.80
27633;DHT22;15046;50.930;13.334;2023-06-19T15:51:18;37.50;42.90
27633;DHT22;15046;50.930;13.334;2023-06-19T15:53:44;36.90;43.20
27633;DHT22;15046;50.930;13.334;2023-06-19T15:56:10;36.50;44.00
27633;DHT22;15046;50.930;13.334;2023-06-19T15:58:35;36.20;44.00
27633;DHT22;15046;50.930;13.334;2023-06-19T16:01:02;35.90;44.40
27633;DHT22;15046;50.930;13.334;2023-06-19T16:03:27;35.80;44.40
27633;DHT22;15046;50.930;13.334;2023-06-19T16:05:55;35.90;44.30
27633;DHT22;15046;50.930;13.334;2023-06-19T16:08:22;35.70;44.90
27633;DHT22;15046;50.930;13.334;2023-06-19T16:10:50;35.50;45.50
27633;DHT22;15046;50.930;13.334;2023-06-19T16:13:16;35.20;44.80
27633;DHT22;15046;50.930;13.334;2023-06-19T16:15:42;35.00;45.90
27633;DHT22;15046;50.930;13.334;2023-06-19T16:18:08;35.40;45.70
27633;DHT22;15046;50.930;13.334;2023-06-19T16:20:36;35.90;45.00
27633;DHT22;15046;50.930;13.334;2023-06-19T16:23:01;36.10;44.40
27633;DHT22;15046;50.930;13.334;2023-06-19T16:25:27;36.30;44.70
27633;DHT22;15046;50.930;13.334;2023-06-19T16:27:53;36.30;44.40
27633;DHT22;15046;50.930;13.334;2023-06-19T16:30:19;36.20;44.50
27633;DHT22;15046;50.930;13.334;2023-06-19T16:32:45;36.20;45.30
27633;DHT22;15046;50.930;13.334;2023-06-19T16:35:10;36.40;46.40
27633;DHT22;15046;50.930;13.334;2023-06-19T16:37:37;36.70;46.00
27633;DHT22;15046;50.930;13.334;2023-06-19T16:40:03;36.90;45.60
27633;DHT22;15046;50.930;13.334;2023-06-19T16:42:30;37.00;45.40
27633;DHT22;15046;50.930;13.334;2023-06-19T16:44:56;37.00;45.10
27633;DHT22;15046;50.930;13.334;2023-06-19T16:47:22;36.90;45.60
27633;DHT22;15046;50.930;13.334;2023-06-19T16:49:48;36.60;45.60
27633;DHT22;15046;50.930;13.334;2023-06-19T16:52:14;36.30;46.10
27633;DHT22;15046;50.930;13.334;2023-06-19T16:54:39;36.00;46.90
27633;DHT22;15046;50.930;13.334;2023-06-19T16:57:05;35.70;47.50
27633;DHT22;15046;50.930;13.334;2023-06-19T16:59:31;35.30;47.80
27633;DHT22;15046;50.930;13.334;2023-06-19T17:01:57;34.90;48.00
27633;DHT22;15046;50.930;13.334;2023-06-19T17:04:23;34.50;48.80
27633;DHT22;15046;50.930;13.334;2023-06-19T17:06:48;34.20;49.00
27633;DHT22;15046;50.930;13.334;2023-06-19T17:09:14;33.90;49.40
27633;DHT22;15046;50.930;13.334;2023-06-19T17:11:40;33.50;49.90
27633;DHT22;15046;50.930;13.334;2023-06-19T17:14:06;33.30;50.30
27633;DHT22;15046;50.930;13.334;2023-06-19T17:16:32;33.20;50.70
27633;DHT22;15046;50.930;13.334;2023-06-19T17:18:57;33.00;50.90
27633;DHT22;15046;50.930;13.334;2023-06-19T17:21:23;32.90;51.10
27633;DHT22;15046;50.930;13.334;2023-06-19T17:23:49;32.80;51.20
27633;DHT22;15046;50.930;13.334;2023-06-19T17:26:15;32.80;51.70
27633;DHT22;15046;50.930;13.334;2023-06-19T17:28:41;32.70;51.90
27633;DHT22;15046;50.930;13.334;2023-06-19T17:31:06;32.70;52.10
27633;DHT22;15046;50.930;13.334;2023-06-19T17:33:34;32.60;52.90
27633;DHT22;15046;50.930;13.334;2023-06-19T17:36:00;32.50;53.40
27633;DHT22;15046;50.930;13.334;2023-06-19T17:38:26;32.40;53.70
27633;DHT22;15046;50.930;13.334;2023-06-19T17:40:53;32.30;54.30
27633;DHT22;15046;50.930;13.334;2023-06-19T17:43:19;32.30;55.50
27633;DHT22;15046;50.930;13.334;2023-06-19T17:45:45;32.20;54.70
27633;DHT22;15046;50.930;13.334;2023-06-19T17:48:10;32.10;55.10
27633;DHT22;15046;50.930;13.334;2023-06-19T17:50:36;32.00;55.40
27633;DHT22;15046;50.930;13.334;2023-06-19T17:53:02;31.90;54.90
27633;DHT22;15046;50.930;13.334;2023-06-19T17:55:30;31.80;54.60
27633;DHT22;15046;50.930;13.334;2023-06-19T17:57:56;31.80;54.50
27633;DHT22;15046;50.930;13.334;2023-06-19T18:00:22;31.70;54.40
27633;DHT22;15046;50.930;13.334;2023-06-19T18:02:49;31.60;54.50
27633;DHT22;15046;50.930;13.334;2023-06-19T18:05:14;31.50;54.60
27633;DHT22;15046;50.930;13.334;2023-06-19T18:07:41;31.40;54.90
27633;DHT22;15046;50.930;13.334;2023-06-19T18:10:08;31.30;55.50
27633;DHT22;15046;50.930;13.334;2023-06-19T18:12:33;31.10;56.20
27633;DHT22;15046;50.930;13.334;2023-06-19T18:15:01;30.90;56.70
27633;DHT22;15046;50.930;13.334;2023-06-19T18:17:27;30.70;57.40
27633;DHT22;15046;50.930;13.334;2023-06-19T18:19:54;30.50;57.60
27633;DHT22;15046;50.930;13.334;2023-06-19T18:22:20;30.40;58.20
27633;DHT22;15046;50.930;13.334;2023-06-19T18:24:46;30.20;58.20
27633;DHT22;15046;50.930;13.334;2023-06-19T18:27:12;30.00;58.40
27633;DHT22;15046;50.930;13.334;2023-06-19T18:29:38;29.80;58.70
27633;DHT22;15046;50.930;13.334;2023-06-19T18:32:04;29.70;58.80
27633;DHT22;15046;50.930;13.334;2023-06-19T18:34:31;29.50;58.80
27633;DHT22;15046;50.930;13.334;2023-06-19T18:36:57;29.30;59.10
27633;DHT22;15046;50.930;13.334;2023-06-19T18:39:23;29.10;59.30
27633;DHT22;15046;50.930;13.334;2023-06-19T18:41:49;29.00;59.90
27633;DHT22;15046;50.930;13.334;2023-06-19T18:44:15;29.00;60.40
27633;DHT22;15046;50.930;13.334;2023-06-19T18:46:41;28.90;60.50
27633;DHT22;15046;50.930;13.334;2023-06-19T18:49:07;28.90;61.00
27633;DHT22;15046;50.930;13.334;2023-06-19T18:51:33;28.80;61.40
27633;DHT22;15046;50.930;13.334;2023-06-19T18:53:58;28.60;61.60
27633;DHT22;15046;50.930;13.334;2023-06-19T18:56:24;28.50;61.60
27633;DHT22;15046;50.930;13.334;2023-06-19T18:58:51;28.40;61.90
27633;DHT22;15046;50.930;13.334;2023-06-19T19:01:17;28.30;62.10
27633;DHT22;15046;50.930;13.334;2023-06-19T19:03:43;28.30;62.00
27633;DHT22;15046;50.930;13.334;2023-06-19T19:06:09;28.20;61.60
27633;DHT22;15046;50.930;13.334;2023-06-19T19:08:34;28.20;61.90
27633;DHT22;15046;50.930;13.334;2023-06-19T19:11:00;28.10;62.10
27633;DHT22;15046;50.930;13.334;2023-06-19T19:13:27;27.90;62.20
27633;DHT22;15046;50.930;13.334;2023-06-19T19:15:53;27.80;62.30
27633;DHT22;15046;50.930;13.334;2023-06-19T19:18:19;27.70;62.60
27633;DHT22;15046;50.930;13.334;2023-06-19T19:20:45;27.60;63.10
27633;DHT22;15046;50.930;13.334;2023-06-19T19:23:11;27.50;63.20
27633;DHT22;15046;50.930;13.334;2023-06-19T19:25:37;27.40;63.40
27633;DHT22;15046;50.930;13.334;2023-06-19T19:28:04;27.30;63.70
27633;DHT22;15046;50.930;13.334;2023-06-19T19:30:30;27.20;63.80
27633;DHT22;15046;50.930;13.334;2023-06-19T19:32:56;27.10;63.90
27633;DHT22;15046;50.930;13.334;2023-06-19T19:35:21;27.00;63.90
27633;DHT22;15046;50.930;13.334;2023-06-19T19:37:47;26.90;64.10
27633;DHT22;15046;50.930;13.334;2023-06-19T19:40:13;26.90;64.40
27633;DHT22;15046;50.930;13.334;2023-06-19T19:42:39;26.80;64.50
27633;DHT22;15046;50.930;13.334;2023-06-19T19:45:05;26.80;64.50
27633;DHT22;15046;50.930;13.334;2023-06-19T19:47:31;26.80;64.70
27633;DHT22;15046;50.930;13.334;2023-06-19T19:49:57;26.70;64.90
27633;DHT22;15046;50.930;13.334;2023-06-19T19:52:23;26.60;64.90
27633;DHT22;15046;50.930;13.334;2023-06-19T19:54:49;26.60;65.10
27633;DHT22;15046;50.930;13.334;2023-06-19T19:57:14;26.60;65.20
27633;DHT22;15046;50.930;13.334;2023-06-19T19:59:40;26.50;65.20
27633;DHT22;15046;50.930;13.334;2023-06-19T20:02:06;26.40;65.20
27633;DHT22;15046;50.930;13.334;2023-06-19T20:04:36;26.40;65.30
27633;DHT22;15046;50.930;13.334;2023-06-19T20:07:03;26.30;65.20
27633;DHT22;15046;50.930;13.334;2023-06-19T20:09:30;26.40;65.30
27633;DHT22;15046;50.930;13.334;2023-06-19T20:11:56;26.40;65.20
27633;DHT22;15046;50.930;13.334;2023-06-19T20:14:22;26.40;65.40
27633;DHT22;15046;50.930;13.334;2023-06-19T20:16:47;26.30;65.40
27633;DHT22;15046;50.930;13.334;2023-06-19T20:19:13;26.20;65.60
27633;DHT22;15046;50.930;13.334;2023-06-19T20:21:39;26.10;65.80
27633;DHT22;15046;50.930;13.334;2023-06-19T20:24:05;26.00;65.90
27633;DHT22;15046;50.930;13.334;2023-06-19T20:26:31;26.00;66.10
27633;DHT22;15046;50.930;13.334;2023-06-19T20:28:58;25.90;65.90
27633;DHT22;15046;50.930;13.334;2023-06-19T20:31:24;25.90;66.10
27633;DHT22;15046;50.930;13.334;2023-06-19T20:33:51;25.80;66.10
27633;DHT22;15046;50.930;13.334;2023-06-19T20:36:16;25.80;66.10
27633;DHT22;15046;50.930;13.334;2023-06-19T20:38:42;25.70;66.10
27633;DHT22;15046;50.930;13.334;2023-06-19T20:41:12;25.70;66.10
27633;DHT22;15046;50.930;13.334;2023-06-19T20:43:42;25.70;66.30
27633;DHT22;15046;50.930;13.334;2023-06-19T20:46:13;25.60;66.50
27633;DHT22;15046;50.930;13.334;2023-06-19T20:48:44;25.60;66.50
27633;DHT22;15046;50.930;13.334;2023-06-19T20:51:11;25.50;66.40
27633;DHT22;15046;50.930;13.334;2023-06-19T20:53:37;25.50;66.40
27633;DHT22;15046;50.930;13.334;2023-06-19T20:56:02;25.40;66.30
27633;DHT22;15046;50.930;13.334;2023-06-19T20:58:28;25.40;66.40
27633;DHT22;15046;50.930;13.334;2023-06-19T21:00:54;25.30;66.40
27633;DHT22;15046;50.930;13.334;2023-06-19T21:03:20;25.30;66.60
27633;DHT22;15046;50.930;13.334;2023-06-19T21:05:47;25.20;66.60
27633;DHT22;15046;50.930;13.334;2023-06-19T21:08:13;25.10;66.70
27633;DHT22;15046;50.930;13.334;2023-06-19T21:10:39;25.10;67.10
27633;DHT22;15046;50.930;13.334;2023-06-19T21:13:07;25.00;67.80
27633;DHT22;15046;50.930;13.334;2023-06-19T21:15:38;25.00;67.40
27633;DHT22;15046;50.930;13.334;2023-06-19T21:18:04;24.90;67.40
27633;DHT22;15046;50.930;13.334;2023-06-19T21:20:30;24.80;67.70
27633;DHT22;15046;50.930;13.334;2023-06-19T21:22:58;24.60;67.90
27633;DHT22;15046;50.930;13.334;2023-06-19T21:25:24;24.50;68.10
27633;DHT22;15046;50.930;13.334;2023-06-19T21:27:49;24.40;68.30
27633;DHT22;15046;50.930;13.334;2023-06-19T21:30:15;24.40;68.60
27633;DHT22;15046;50.930;13.334;2023-06-19T21:32:41;24.40;68.10
27633;DHT22;15046;50.930;13.334;2023-06-19T21:35:07;24.40;68.80
27633;DHT22;15046;50.930;13.334;2023-06-19T21:37:33;24.40;68.90
27633;DHT22;15046;50.930;13.334;2023-06-19T21:39:59;24.40;69.00
27633;DHT22;15046;50.930;13.334;2023-06-19T21:42:26;24.30;69.20
27633;DHT22;15046;50.930;13.334;2023-06-19T21:44:52;24.20;69.50
27633;DHT22;15046;50.930;13.334;2023-06-19T21:47:18;24.20;69.60
27633;DHT22;15046;50.930;13.334;2023-06-19T21:49:43;24.10;69.70
27633;DHT22;15046;50.930;13.334;2023-06-19T21:52:09;24.10;69.90
27633;DHT22;15046;50.930;13.334;2023-06-19T21:54:35;24.00;70.00
27633;DHT22;15046;50.930;13.334;2023-06-19T21:57:01;23.90;70.20
27633;DHT22;15046;50.930;13.334;2023-06-19T21:59:27;23.80;70.50
27633;DHT22;15046;50.930;13.334;2023-06-19T22:01:53;23.80;70.60
27633;DHT22;15046;50.930;13.334;2023-06-19T22:04:18;23.70;70.60
27633;DHT22;15046;50.930;13.334;2023-06-19T22:06:44;23.80;70.70
27633;DHT22;15046;50.930;13.334;2023-06-19T22:09:11;23.80;70.80
27633;DHT22;15046;50.930;13.334;2023-06-19T22:11:37;23.70;70.80
27633;DHT22;15046;50.930;13.334;2023-06-19T22:14:03;23.70;70.80
27633;DHT22;15046;50.930;13.334;2023-06-19T22:16:29;23.70;70.90
27633;DHT22;15046;50.930;13.334;2023-06-19T22:18:55;23.60;71.10
27633;DHT22;15046;50.930;13.334;2023-06-19T22:21:21;23.60;71.20
27633;DHT22;15046;50.930;13.334;2023-06-19T22:23:46;23.60;71.30
27633;DHT22;15046;50.930;13.334;2023-06-19T22:26:12;23.50;71.50
27633;DHT22;15046;50.930;13.334;2023-06-19T22:28:38;23.50;71.80
27633;DHT22;15046;50.930;13.334;2023-06-19T22:31:04;23.40;71.90
27633;DHT22;15046;50.930;13.334;2023-06-19T22:33:31;23.30;72.10
27633;DHT22;15046;50.930;13.334;2023-06-19T22:35:57;23.30;72.40
27633;DHT22;15046;50.930;13.334;2023-06-19T22:38:23;23.20;72.70
27633;DHT22;15046;50.930;13.334;2023-06-19T22:40:49;23.10;72.80
27633;DHT22;15046;50.930;13.334;2023-06-19T22:43:14;23.10;73.00
27633;DHT22;15046;50.930;13.334;2023-06-19T22:45:40;23.10;73.10
27633;DHT22;15046;50.930;13.334;2023-06-19T22:48:06;23.00;73.20
27633;DHT22;15046;50.930;13.334;2023-06-19T22:50:31;22.90;73.10